sensor_id;sensor_type;location;lat;lon;timestamp;P1;durP1;ratioP1;P2;durP2;ratioP2
29538;SDS011;16482;51.046;4.498;2023-08-08T00:00:58;3.58;;;1.92;;
29538;SDS011;16482;51.046;4.498;2023-08-08T00:03:24;3.63;;;1.98;;
29538;SDS011;16482;51.046;4.498;2023-08-08T00:05:56;2.80;;;2.00;;
29538;SDS011;16482;51.046;4.498;2023-08-08T00:08:22;3.08;;;2.20;;
29538;SDS011;16482;51.046;4.498;2023-08-08T00:10:50;3.63;;;2.00;;
29538;SDS011;16482;51.046;4.498;2023-08-08T00:13:26;3.58;;;2.20;;
29538;SDS011;16482;51.046;4.498;2023-08-08T00:15:55;3.00;;;2.05;;
29538;SDS011;16482;51.046;4.498;2023-08-08T00:18:26;3.28;;;2.28;;
29538;SDS011;16482;51.046;4.498;2023-08-08T00:20:59;3.33;;;2.10;;
29538;SDS011;16482;51.046;4.498;2023-08-08T00:23:25;3.00;;;2.00;;
29538;SDS011;16482;51.046;4.498;2023-08-08T00:25:54;3.33;;;1.83;;
29538;SDS011;16482;51.046;4.498;2023-08-08T00:28:20;4.45;;;2.47;;
29538;SDS011;16482;51.046;4.498;2023-08-08T00:30:49;3.30;;;2.35;;
29538;SDS011;16482;51.046;4.498;2023-08-08T00:33:25;3.00;;;1.98;;
29538;SDS011;16482;51.046;4.498;2023-08-08T00:35:51;2.75;;;2.00;;
29538;SDS011;16482;51.046;4.498;2023-08-08T00:38:25;4.80;;;2.47;;
29538;SDS011;16482;51.046;4.498;2023-08-08T00:40:58;2.83;;;1.90;;
29538;SDS011;16482;51.046;4.498;2023-08-08T00:43:27;3.08;;;2.10;;
29538;SDS011;16482;51.046;4.498;2023-08-08T00:45:55;2.90;;;2.20;;
29538;SDS011;16482;51.046;4.498;2023-08-08T00:48:27;3.75;;;2.10;;
29538;SDS011;16482;51.046;4.498;2023-08-08T00:50:55;3.00;;;2.13;;
29538;SDS011;16482;51.046;4.498;2023-08-08T00:53:24;4.57;;;2.47;;
29538;SDS011;16482;51.046;4.498;2023-08-08T00:55:56;4.03;;;2.15;;
29538;SDS011;16482;51.046;4.498;2023-08-08T00:58:23;5.15;;;2.30;;
29538;SDS011;16482;51.046;4.498;2023-08-08T01:00:49;3.70;;;2.10;;
29538;SDS011;16482;51.046;4.498;2023-08-08T01:03:24;3.67;;;2.35;;
29538;SDS011;16482;51.046;4.498;2023-08-08T01:06:00;4.40;;;2.13;;
29538;SDS011;16482;51.046;4.498;2023-08-08T01:08:42;3.40;;;2.03;;
29538;SDS011;16482;51.046;4.498;2023-08-08T01:11:16;3.53;;;2.20;;
29538;SDS011;16482;51.046;4.498;2023-08-08T01:13:43;2.08;;;1.65;;
29538;SDS011;16482;51.046;4.498;2023-08-08T01:16:11;4.05;;;2.55;;
29538;SDS011;16482;51.046;4.498;2023-08-08T01:18:38;3.20;;;2.08;;
29538;SDS011;16482;51.046;4.498;2023-08-08T01:21:05;3.92;;;2.05;;
29538;SDS011;16482;51.046;4.498;2023-08-08T01:23:56;3.22;;;2.30;;
29538;SDS011;16482;51.046;4.498;2023-08-08T01:26:51;4.28;;;2.40;;
29538;SDS011;16482;51.046;4.498;2023-08-08T01:29:20;2.60;;;2.05;;
29538;SDS011;16482;51.046;4.498;2023-08-08T01:31:46;3.40;;;2.15;;
29538;SDS011;16482;51.046;4.498;2023-08-08T01:34:12;2.75;;;2.10;;
29538;SDS011;16482;51.046;4.498;2023-08-08T01:41:45;3.75;;;2.30;;
29538;SDS011;16482;51.046;4.498;2023-08-08T01:44:13;4.20;;;2.20;;
29538;SDS011;16482;51.046;4.498;2023-08-08T01:46:40;3.30;;;2.20;;
29538;SDS011;16482;51.046;4.498;2023-08-08T01:49:18;4.93;;;2.88;;
29538;SDS011;16482;51.046;4.498;2023-08-08T01:51:45;5.13;;;2.28;;
29538;SDS011;16482;51.046;4.498;2023-08-08T01:54:16;3.83;;;2.15;;
29538;SDS011;16482;51.046;4.498;2023-08-08T01:56:46;2.88;;;1.70;;
29538;SDS011;16482;51.046;4.498;2023-08-08T01:59:20;4.10;;;2.38;;
29538;SDS011;16482;51.046;4.498;2023-08-08T02:01:53;3.70;;;2.05;;
29538;SDS011;16482;51.046;4.498;2023-08-08T02:04:22;3.83;;;2.38;;
29538;SDS011;16482;51.046;4.498;2023-08-08T02:06:48;4.53;;;2.47;;
29538;SDS011;16482;51.046;4.498;2023-08-08T02:09:14;3.70;;;2.25;;
29538;SDS011;16482;51.046;4.498;2023-08-08T02:11:46;3.65;;;2.08;;
29538;SDS011;16482;51.046;4.498;2023-08-08T02:14:12;3.40;;;2.03;;
29538;SDS011;16482;51.046;4.498;2023-08-08T02:16:50;4.03;;;2.47;;
29538;SDS011;16482;51.046;4.498;2023-08-08T02:19:16;3.30;;;2.30;;
29538;SDS011;16482;51.046;4.498;2023-08-08T02:21:45;4.03;;;2.40;;
29538;SDS011;16482;51.046;4.498;2023-08-08T02:24:16;3.38;;;2.42;;
29538;SDS011;16482;51.046;4.498;2023-08-08T02:26:42;3.47;;;2.40;;
29538;SDS011;16482;51.046;4.498;2023-08-08T02:29:12;3.83;;;2.75;;
29538;SDS011;16482;51.046;4.498;2023-08-08T02:31:38;5.65;;;2.30;;
29538;SDS011;16482;51.046;4.498;2023-08-08T02:34:07;3.63;;;2.13;;
29538;SDS011;16482;51.046;4.498;2023-08-08T02:36:33;3.22;;;2.10;;
29538;SDS011;16482;51.046;4.498;2023-08-08T02:39:08;3.78;;;2.40;;
29538;SDS011;16482;51.046;4.498;2023-08-08T02:41:39;3.78;;;2.00;;
29538;SDS011;16482;51.046;4.498;2023-08-08T02:44:08;4.40;;;2.50;;
29538;SDS011;16482;51.046;4.498;2023-08-08T02:46:34;3.13;;;2.42;;
29538;SDS011;16482;51.046;4.498;2023-08-08T02:49:09;3.47;;;2.17;;
29538;SDS011;16482;51.046;4.498;2023-08-08T02:51:45;3.28;;;2.20;;
29538;SDS011;16482;51.046;4.498;2023-08-08T02:54:18;4.20;;;2.25;;
29538;SDS011;16482;51.046;4.498;2023-08-08T02:56:44;4.22;;;2.30;;
29538;SDS011;16482;51.046;4.498;2023-08-08T02:59:10;3.85;;;2.33;;
29538;SDS011;16482;51.046;4.498;2023-08-08T03:01:48;4.05;;;2.08;;
29538;SDS011;16482;51.046;4.498;2023-08-08T03:04:20;2.45;;;1.80;;
29538;SDS011;16482;51.046;4.498;2023-08-08T03:06:46;4.28;;;2.17;;
29538;SDS011;16482;51.046;4.498;2023-08-08T03:09:21;4.68;;;2.15;;
29538;SDS011;16482;51.046;4.498;2023-08-08T03:11:49;3.85;;;2.33;;
29538;SDS011;16482;51.046;4.498;2023-08-08T03:14:16;3.80;;;2.40;;
29538;SDS011;16482;51.046;4.498;2023-08-08T03:16:46;3.95;;;2.17;;
29538;SDS011;16482;51.046;4.498;2023-08-08T03:19:15;3.10;;;2.22;;
29538;SDS011;16482;51.046;4.498;2023-08-08T03:21:47;3.88;;;2.28;;
29538;SDS011;16482;51.046;4.498;2023-08-08T03:24:15;3.60;;;2.60;;
29538;SDS011;16482;51.046;4.498;2023-08-08T03:26:44;4.38;;;2.03;;
29538;SDS011;16482;51.046;4.498;2023-08-08T03:29:15;4.22;;;2.30;;
29538;SDS011;16482;51.046;4.498;2023-08-08T03:31:44;4.75;;;2.60;;
29538;SDS011;16482;51.046;4.498;2023-08-08T03:34:14;5.15;;;2.53;;
29538;SDS011;16482;51.046;4.498;2023-08-08T03:36:40;3.17;;;2.10;;
29538;SDS011;16482;51.046;4.498;2023-08-08T03:41:52;3.78;;;2.25;;
29538;SDS011;16482;51.046;4.498;2023-08-08T03:44:21;3.28;;;2.15;;
29538;SDS011;16482;51.046;4.498;2023-08-08T03:46:47;3.47;;;2.40;;
29538;SDS011;16482;51.046;4.498;2023-08-08T03:49:15;4.93;;;2.38;;
29538;SDS011;16482;51.046;4.498;2023-08-08T03:51:41;3.55;;;2.33;;
29538;SDS011;16482;51.046;4.498;2023-08-08T03:54:13;4.05;;;2.33;;
29538;SDS011;16482;51.046;4.498;2023-08-08T03:56:39;4.30;;;2.35;;
29538;SDS011;16482;51.046;4.498;2023-08-08T03:59:08;3.85;;;2.60;;
29538;SDS011;16482;51.046;4.498;2023-08-08T04:01:36;4.78;;;2.40;;
29538;SDS011;16482;51.046;4.498;2023-08-08T04:04:03;4.47;;;2.50;;
29538;SDS011;16482;51.046;4.498;2023-08-08T04:06:31;5.20;;;2.83;;
29538;SDS011;16482;51.046;4.498;2023-08-08T04:08:57;4.40;;;2.50;;
29538;SDS011;16482;51.046;4.498;2023-08-08T04:11:26;4.43;;;2.38;;
29538;SDS011;16482;51.046;4.498;2023-08-08T04:13:52;4.03;;;2.05;;
29538;SDS011;16482;51.046;4.498;2023-08-08T04:16:21;4.78;;;2.20;;
29538;SDS011;16482;51.046;4.498;2023-08-08T04:18:50;4.05;;;2.20;;
29538;SDS011;16482;51.046;4.498;2023-08-08T04:21:16;4.57;;;2.92;;
29538;SDS011;16482;51.046;4.498;2023-08-08T04:23:51;3.85;;;2.30;;
29538;SDS011;16482;51.046;4.498;2023-08-08T04:26:17;5.45;;;2.50;;
29538;SDS011;16482;51.046;4.498;2023-08-08T04:28:43;3.88;;;2.35;;
29538;SDS011;16482;51.046;4.498;2023-08-08T04:31:09;5.53;;;2.70;;
29538;SDS011;16482;51.046;4.498;2023-08-08T04:33:35;3.42;;;2.10;;
29538;SDS011;16482;51.046;4.498;2023-08-08T04:36:04;3.78;;;2.22;;
29538;SDS011;16482;51.046;4.498;2023-08-08T04:38:30;3.67;;;2.10;;
29538;SDS011;16482;51.046;4.498;2023-08-08T04:40:56;2.88;;;2.30;;
29538;SDS011;16482;51.046;4.498;2023-08-08T04:43:25;3.15;;;2.40;;
29538;SDS011;16482;51.046;4.498;2023-08-08T04:45:55;4.80;;;2.22;;
29538;SDS011;16482;51.046;4.498;2023-08-08T04:48:30;5.75;;;2.60;;
29538;SDS011;16482;51.046;4.498;2023-08-08T04:50:57;3.85;;;2.15;;
29538;SDS011;16482;51.046;4.498;2023-08-08T04:53:26;4.07;;;2.17;;
29538;SDS011;16482;51.046;4.498;2023-08-08T04:55:54;2.75;;;2.28;;
29538;SDS011;16482;51.046;4.498;2023-08-08T04:58:26;3.67;;;2.35;;
29538;SDS011;16482;51.046;4.498;2023-08-08T05:00:52;3.75;;;2.50;;
29538;SDS011;16482;51.046;4.498;2023-08-08T05:03:21;4.22;;;2.50;;
29538;SDS011;16482;51.046;4.498;2023-08-08T05:05:50;5.65;;;2.78;;
29538;SDS011;16482;51.046;4.498;2023-08-08T05:08:16;3.80;;;2.30;;
29538;SDS011;16482;51.046;4.498;2023-08-08T05:10:44;4.35;;;2.42;;
29538;SDS011;16482;51.046;4.498;2023-08-08T05:13:20;3.97;;;2.80;;
29538;SDS011;16482;51.046;4.498;2023-08-08T05:15:56;4.35;;;2.70;;
29538;SDS011;16482;51.046;4.498;2023-08-08T05:18:25;4.07;;;2.40;;
29538;SDS011;16482;51.046;4.498;2023-08-08T05:20:51;6.05;;;2.50;;
29538;SDS011;16482;51.046;4.498;2023-08-08T05:23:25;3.97;;;2.50;;
29538;SDS011;16482;51.046;4.498;2023-08-08T05:25:53;5.40;;;2.83;;
29538;SDS011;16482;51.046;4.498;2023-08-08T05:28:29;5.47;;;2.42;;
29538;SDS011;16482;51.046;4.498;2023-08-08T05:30:55;5.38;;;2.53;;
29538;SDS011;16482;51.046;4.498;2023-08-08T05:33:21;5.03;;;2.58;;
29538;SDS011;16482;51.046;4.498;2023-08-08T05:35:55;4.65;;;2.55;;
29538;SDS011;16482;51.046;4.498;2023-08-08T05:38:26;6.82;;;2.60;;
29538;SDS011;16482;51.046;4.498;2023-08-08T05:40:52;4.38;;;2.40;;
29538;SDS011;16482;51.046;4.498;2023-08-08T05:43:18;4.70;;;2.60;;
29538;SDS011;16482;51.046;4.498;2023-08-08T05:45:56;4.45;;;2.45;;
29538;SDS011;16482;51.046;4.498;2023-08-08T05:48:29;4.75;;;2.60;;
29538;SDS011;16482;51.046;4.498;2023-08-08T05:50:54;4.85;;;2.70;;
29538;SDS011;16482;51.046;4.498;2023-08-08T05:53:26;5.32;;;2.45;;
29538;SDS011;16482;51.046;4.498;2023-08-08T05:55:55;5.25;;;2.50;;
29538;SDS011;16482;51.046;4.498;2023-08-08T05:58:26;4.95;;;2.88;;
29538;SDS011;16482;51.046;4.498;2023-08-08T06:00:52;3.47;;;2.33;;
29538;SDS011;16482;51.046;4.498;2023-08-08T06:03:20;5.35;;;2.60;;
29538;SDS011;16482;51.046;4.498;2023-08-08T06:05:56;4.18;;;2.33;;
29538;SDS011;16482;51.046;4.498;2023-08-08T06:08:22;6.25;;;2.83;;
29538;SDS011;16482;51.046;4.498;2023-08-08T06:10:53;4.45;;;2.40;;
29538;SDS011;16482;51.046;4.498;2023-08-08T06:13:19;4.43;;;2.50;;
29538;SDS011;16482;51.046;4.498;2023-08-08T06:15:56;5.78;;;2.90;;
29538;SDS011;16482;51.046;4.498;2023-08-08T06:18:23;5.10;;;2.45;;
29538;SDS011;16482;51.046;4.498;2023-08-08T06:20:49;4.13;;;2.22;;
29538;SDS011;16482;51.046;4.498;2023-08-08T06:23:25;3.83;;;2.50;;
29538;SDS011;16482;51.046;4.498;2023-08-08T06:25:51;4.85;;;2.88;;
29538;SDS011;16482;51.046;4.498;2023-08-08T06:28:27;4.55;;;2.60;;
29538;SDS011;16482;51.046;4.498;2023-08-08T06:30:55;7.00;;;2.95;;
29538;SDS011;16482;51.046;4.498;2023-08-08T06:33:25;4.47;;;2.70;;
29538;SDS011;16482;51.046;4.498;2023-08-08T06:35:53;6.70;;;2.70;;
29538;SDS011;16482;51.046;4.498;2023-08-08T06:38:20;7.50;;;3.05;;
29538;SDS011;16482;51.046;4.498;2023-08-08T06:40:46;6.38;;;2.65;;
29538;SDS011;16482;51.046;4.498;2023-08-08T06:43:12;5.82;;;2.83;;
29538;SDS011;16482;51.046;4.498;2023-08-08T06:45:38;6.90;;;2.85;;
29538;SDS011;16482;51.046;4.498;2023-08-08T06:48:05;5.75;;;2.85;;
29538;SDS011;16482;51.046;4.498;2023-08-08T06:50:31;6.03;;;2.75;;
29538;SDS011;16482;51.046;4.498;2023-08-08T06:52:57;6.78;;;2.85;;
29538;SDS011;16482;51.046;4.498;2023-08-08T06:55:23;5.20;;;2.50;;
29538;SDS011;16482;51.046;4.498;2023-08-08T06:57:52;5.65;;;2.60;;
29538;SDS011;16482;51.046;4.498;2023-08-08T07:00:18;5.05;;;2.80;;
29538;SDS011;16482;51.046;4.498;2023-08-08T07:02:44;5.22;;;2.90;;
29538;SDS011;16482;51.046;4.498;2023-08-08T07:05:10;4.47;;;2.80;;
29538;SDS011;16482;51.046;4.498;2023-08-08T07:07:41;4.40;;;2.50;;
29538;SDS011;16482;51.046;4.498;2023-08-08T07:10:07;4.90;;;2.45;;
29538;SDS011;16482;51.046;4.498;2023-08-08T07:12:37;4.53;;;2.60;;
29538;SDS011;16482;51.046;4.498;2023-08-08T07:15:06;6.20;;;2.83;;
29538;SDS011;16482;51.046;4.498;2023-08-08T07:17:40;5.50;;;2.20;;
29538;SDS011;16482;51.046;4.498;2023-08-08T07:20:06;6.72;;;2.65;;
29538;SDS011;16482;51.046;4.498;2023-08-08T07:22:38;5.70;;;3.00;;
29538;SDS011;16482;51.046;4.498;2023-08-08T07:25:07;5.07;;;2.67;;
29538;SDS011;16482;51.046;4.498;2023-08-08T07:27:36;4.22;;;2.50;;
29538;SDS011;16482;51.046;4.498;2023-08-08T07:30:05;5.38;;;2.85;;
29538;SDS011;16482;51.046;4.498;2023-08-08T07:32:34;5.60;;;3.05;;
29538;SDS011;16482;51.046;4.498;2023-08-08T07:35:00;8.63;;;2.80;;
29538;SDS011;16482;51.046;4.498;2023-08-08T07:37:37;5.18;;;2.90;;
29538;SDS011;16482;51.046;4.498;2023-08-08T07:40:13;5.75;;;2.42;;
29538;SDS011;16482;51.046;4.498;2023-08-08T07:42:40;5.65;;;2.70;;
29538;SDS011;16482;51.046;4.498;2023-08-08T07:45:06;5.47;;;2.85;;
29538;SDS011;16482;51.046;4.498;2023-08-08T07:47:35;4.93;;;2.42;;
29538;SDS011;16482;51.046;4.498;2023-08-08T07:50:11;5.85;;;2.58;;
29538;SDS011;16482;51.046;4.498;2023-08-08T07:52:37;4.82;;;2.63;;
29538;SDS011;16482;51.046;4.498;2023-08-08T07:55:12;5.45;;;2.58;;
29538;SDS011;16482;51.046;4.498;2023-08-08T07:57:47;5.63;;;2.72;;
29538;SDS011;16482;51.046;4.498;2023-08-08T08:00:16;9.30;;;3.22;;
29538;SDS011;16482;51.046;4.498;2023-08-08T08:02:44;7.15;;;2.70;;
29538;SDS011;16482;51.046;4.498;2023-08-08T08:05:10;4.75;;;2.80;;
29538;SDS011;16482;51.046;4.498;2023-08-08T08:07:37;9.13;;;3.22;;
29538;SDS011;16482;51.046;4.498;2023-08-08T08:10:06;5.60;;;2.45;;
29538;SDS011;16482;51.046;4.498;2023-08-08T08:12:37;4.45;;;2.58;;
29538;SDS011;16482;51.046;4.498;2023-08-08T08:15:06;3.83;;;2.50;;
29538;SDS011;16482;51.046;4.498;2023-08-08T08:17:35;4.50;;;2.53;;
29538;SDS011;16482;51.046;4.498;2023-08-08T08:20:09;5.47;;;2.55;;
29538;SDS011;16482;51.046;4.498;2023-08-08T08:22:37;5.00;;;3.08;;
29538;SDS011;16482;51.046;4.498;2023-08-08T08:25:10;5.65;;;3.28;;
29538;SDS011;16482;51.046;4.498;2023-08-08T08:27:36;6.32;;;3.00;;
29538;SDS011;16482;51.046;4.498;2023-08-08T08:30:05;5.75;;;2.65;;
29538;SDS011;16482;51.046;4.498;2023-08-08T08:32:35;4.88;;;2.85;;
29538;SDS011;16482;51.046;4.498;2023-08-08T08:35:09;6.50;;;3.00;;
29538;SDS011;16482;51.046;4.498;2023-08-08T08:37:38;5.45;;;2.63;;
29538;SDS011;16482;51.046;4.498;2023-08-08T08:40:06;7.53;;;2.88;;
29538;SDS011;16482;51.046;4.498;2023-08-08T08:42:36;5.68;;;2.50;;
29538;SDS011;16482;51.046;4.498;2023-08-08T08:45:04;6.22;;;2.92;;
29538;SDS011;16482;51.046;4.498;2023-08-08T08:47:31;5.40;;;2.67;;
29538;SDS011;16482;51.046;4.498;2023-08-08T08:50:01;4.82;;;2.63;;
29538;SDS011;16482;51.046;4.498;2023-08-08T08:52:30;5.97;;;3.00;;
29538;SDS011;16482;51.046;4.498;2023-08-08T08:55:06;5.75;;;3.17;;
29538;SDS011;16482;51.046;4.498;2023-08-08T08:57:35;6.05;;;3.15;;
29538;SDS011;16482;51.046;4.498;2023-08-08T09:00:02;5.78;;;2.90;;
29538;SDS011;16482;51.046;4.498;2023-08-08T09:02:36;6.93;;;2.80;;
29538;SDS011;16482;51.046;4.498;2023-08-08T09:05:12;5.88;;;2.78;;
29538;SDS011;16482;51.046;4.498;2023-08-08T09:07:40;5.13;;;2.85;;
29538;SDS011;16482;51.046;4.498;2023-08-08T09:10:08;5.05;;;2.90;;
29538;SDS011;16482;51.046;4.498;2023-08-08T09:12:34;5.88;;;3.03;;
29538;SDS011;16482;51.046;4.498;2023-08-08T09:15:11;5.63;;;2.90;;
29538;SDS011;16482;51.046;4.498;2023-08-08T09:17:42;5.45;;;3.10;;
29538;SDS011;16482;51.046;4.498;2023-08-08T09:20:11;6.78;;;3.05;;
29538;SDS011;16482;51.046;4.498;2023-08-08T09:22:38;5.13;;;2.92;;
29538;SDS011;16482;51.046;4.498;2023-08-08T09:25:07;5.35;;;3.00;;
29538;SDS011;16482;51.046;4.498;2023-08-08T09:27:35;5.50;;;2.70;;
29538;SDS011;16482;51.046;4.498;2023-08-08T09:30:02;5.40;;;2.83;;
29538;SDS011;16482;51.046;4.498;2023-08-08T09:32:37;6.93;;;3.05;;
29538;SDS011;16482;51.046;4.498;2023-08-08T09:35:05;4.28;;;2.75;;
29538;SDS011;16482;51.046;4.498;2023-08-08T09:37:37;7.65;;;2.88;;
29538;SDS011;16482;51.046;4.498;2023-08-08T09:40:16;5.30;;;3.03;;
29538;SDS011;16482;51.046;4.498;2023-08-08T09:42:52;5.60;;;3.03;;
29538;SDS011;16482;51.046;4.498;2023-08-08T09:45:21;6.70;;;3.25;;
29538;SDS011;16482;51.046;4.498;2023-08-08T09:47:49;7.05;;;3.20;;
29538;SDS011;16482;51.046;4.498;2023-08-08T09:50:17;5.28;;;3.22;;
29538;SDS011;16482;51.046;4.498;2023-08-08T09:52:44;4.80;;;2.95;;
29538;SDS011;16482;51.046;4.498;2023-08-08T09:55:12;5.68;;;3.10;;
29538;SDS011;16482;51.046;4.498;2023-08-08T09:57:41;5.97;;;3.25;;
29538;SDS011;16482;51.046;4.498;2023-08-08T10:00:16;5.63;;;3.35;;
29538;SDS011;16482;51.046;4.498;2023-08-08T10:02:46;5.38;;;3.08;;
29538;SDS011;16482;51.046;4.498;2023-08-08T10:05:13;7.30;;;3.22;;
29538;SDS011;16482;51.046;4.498;2023-08-08T10:07:41;7.05;;;3.75;;
29538;SDS011;16482;51.046;4.498;2023-08-08T10:10:08;6.47;;;3.35;;
29538;SDS011;16482;51.046;4.498;2023-08-08T10:12:40;5.78;;;3.10;;
29538;SDS011;16482;51.046;4.498;2023-08-08T10:15:10;5.70;;;3.33;;
29538;SDS011;16482;51.046;4.498;2023-08-08T10:17:38;6.13;;;3.13;;
29538;SDS011;16482;51.046;4.498;2023-08-08T10:20:06;4.53;;;3.00;;
29538;SDS011;16482;51.046;4.498;2023-08-08T10:22:42;4.68;;;2.83;;
29538;SDS011;16482;51.046;4.498;2023-08-08T10:25:17;4.57;;;2.65;;
29538;SDS011;16482;51.046;4.498;2023-08-08T10:28:08;4.43;;;3.17;;
29538;SDS011;16482;51.046;4.498;2023-08-08T10:33:22;3.95;;;2.85;;
29538;SDS011;16482;51.046;4.498;2023-08-08T10:36:04;5.05;;;3.10;;
29538;SDS011;16482;51.046;4.498;2023-08-08T10:38:47;6.63;;;3.80;;
29538;SDS011;16482;51.046;4.498;2023-08-08T10:41:19;6.63;;;3.17;;
29538;SDS011;16482;51.046;4.498;2023-08-08T10:43:50;6.20;;;3.33;;
29538;SDS011;16482;51.046;4.498;2023-08-08T10:46:23;6.38;;;3.70;;
29538;SDS011;16482;51.046;4.498;2023-08-08T10:48:54;6.07;;;3.35;;
29538;SDS011;16482;51.046;4.498;2023-08-08T10:51:31;6.03;;;3.40;;
29538;SDS011;16482;51.046;4.498;2023-08-08T10:53:59;6.32;;;3.47;;
29538;SDS011;16482;51.046;4.498;2023-08-08T10:56:31;5.90;;;3.75;;
29538;SDS011;16482;51.046;4.498;2023-08-08T10:58:59;7.35;;;3.45;;
29538;SDS011;16482;51.046;4.498;2023-08-08T11:01:48;5.75;;;3.47;;
29538;SDS011;16482;51.046;4.498;2023-08-08T11:04:25;8.50;;;3.83;;
29538;SDS011;16482;51.046;4.498;2023-08-08T11:06:54;5.40;;;3.72;;
29538;SDS011;16482;51.046;4.498;2023-08-08T11:09:21;5.55;;;3.33;;
29538;SDS011;16482;51.046;4.498;2023-08-08T11:11:48;6.10;;;3.60;;
29538;SDS011;16482;51.046;4.498;2023-08-08T11:14:18;7.40;;;3.45;;
29538;SDS011;16482;51.046;4.498;2023-08-08T11:16:49;6.90;;;3.38;;
29538;SDS011;16482;51.046;4.498;2023-08-08T11:19:16;7.32;;;3.40;;
29538;SDS011;16482;51.046;4.498;2023-08-08T11:21:51;7.50;;;3.90;;
29538;SDS011;16482;51.046;4.498;2023-08-08T11:24:17;6.38;;;3.90;;
29538;SDS011;16482;51.046;4.498;2023-08-08T11:26:46;5.63;;;3.75;;
29538;SDS011;16482;51.046;4.498;2023-08-08T11:29:12;5.93;;;3.42;;
29538;SDS011;16482;51.046;4.498;2023-08-08T11:31:40;4.45;;;3.10;;
29538;SDS011;16482;51.046;4.498;2023-08-08T11:34:07;5.15;;;3.17;;
29538;SDS011;16482;51.046;4.498;2023-08-08T11:36:35;5.82;;;3.15;;
29538;SDS011;16482;51.046;4.498;2023-08-08T11:39:02;5.95;;;3.60;;
29538;SDS011;16482;51.046;4.498;2023-08-08T11:41:34;8.32;;;3.97;;
29538;SDS011;16482;51.046;4.498;2023-08-08T11:44:02;9.38;;;4.20;;
29538;SDS011;16482;51.046;4.498;2023-08-08T11:46:29;6.22;;;3.38;;
29538;SDS011;16482;51.046;4.498;2023-08-08T11:49:01;6.07;;;4.00;;
29538;SDS011;16482;51.046;4.498;2023-08-08T11:51:28;7.18;;;3.50;;
29538;SDS011;16482;51.046;4.498;2023-08-08T11:53:54;5.20;;;3.40;;
29538;SDS011;16482;51.046;4.498;2023-08-08T11:56:21;8.90;;;3.72;;
29538;SDS011;16482;51.046;4.498;2023-08-08T11:58:49;5.63;;;3.47;;
29538;SDS011;16482;51.046;4.498;2023-08-08T12:01:19;5.40;;;3.67;;
29538;SDS011;16482;51.046;4.498;2023-08-08T12:03:45;4.57;;;3.50;;
29538;SDS011;16482;51.046;4.498;2023-08-08T12:06:12;6.95;;;3.55;;
29538;SDS011;16482;51.046;4.498;2023-08-08T12:08:42;5.30;;;3.35;;
29538;SDS011;16482;51.046;4.498;2023-08-08T12:11:09;5.60;;;3.55;;
29538;SDS011;16482;51.046;4.498;2023-08-08T12:13:43;4.05;;;3.17;;
29538;SDS011;16482;51.046;4.498;2023-08-08T12:16:10;8.70;;;3.15;;
29538;SDS011;16482;51.046;4.498;2023-08-08T12:18:39;4.50;;;3.08;;
29538;SDS011;16482;51.046;4.498;2023-08-08T12:21:06;5.15;;;3.35;;
29538;SDS011;16482;51.046;4.498;2023-08-08T12:23:34;6.47;;;3.70;;
29538;SDS011;16482;51.046;4.498;2023-08-08T12:26:02;4.95;;;3.38;;
29538;SDS011;16482;51.046;4.498;2023-08-08T12:28:33;4.30;;;3.30;;
29538;SDS011;16482;51.046;4.498;2023-08-08T12:30:59;5.10;;;3.28;;
29538;SDS011;16482;51.046;4.498;2023-08-08T12:33:26;3.10;;;2.80;;
29538;SDS011;16482;51.046;4.498;2023-08-08T12:35:58;5.30;;;3.10;;
29538;SDS011;16482;51.046;4.498;2023-08-08T12:38:24;4.97;;;3.28;;
29538;SDS011;16482;51.046;4.498;2023-08-08T12:40:57;5.75;;;3.00;;
29538;SDS011;16482;51.046;4.498;2023-08-08T12:43:25;4.25;;;2.80;;
29538;SDS011;16482;51.046;4.498;2023-08-08T12:45:51;4.65;;;3.33;;
29538;SDS011;16482;51.046;4.498;2023-08-08T12:48:28;5.00;;;3.13;;
29538;SDS011;16482;51.046;4.498;2023-08-08T12:51:03;4.32;;;3.08;;
29538;SDS011;16482;51.046;4.498;2023-08-08T12:53:32;4.32;;;2.95;;
29538;SDS011;16482;51.046;4.498;2023-08-08T12:55:59;3.67;;;2.83;;
29538;SDS011;16482;51.046;4.498;2023-08-08T12:58:27;4.18;;;3.05;;
29538;SDS011;16482;51.046;4.498;2023-08-08T13:00:58;5.28;;;2.83;;
29538;SDS011;16482;51.046;4.498;2023-08-08T13:03:24;3.78;;;2.75;;
29538;SDS011;16482;51.046;4.498;2023-08-08T13:05:59;4.63;;;2.67;;
29538;SDS011;16482;51.046;4.498;2023-08-08T13:08:28;3.10;;;2.50;;
29538;SDS011;16482;51.046;4.498;2023-08-08T13:10:54;3.20;;;2.47;;
29538;SDS011;16482;51.046;4.498;2023-08-08T13:13:28;4.28;;;2.70;;
29538;SDS011;16482;51.046;4.498;2023-08-08T13:15:54;3.97;;;2.67;;
29538;SDS011;16482;51.046;4.498;2023-08-08T13:18:29;2.83;;;2.38;;
29538;SDS011;16482;51.046;4.498;2023-08-08T13:20:57;3.85;;;2.65;;
29538;SDS011;16482;51.046;4.498;2023-08-08T13:23:31;3.42;;;2.70;;
29538;SDS011;16482;51.046;4.498;2023-08-08T13:25:59;3.38;;;2.60;;
29538;SDS011;16482;51.046;4.498;2023-08-08T13:28:28;3.30;;;2.58;;
29538;SDS011;16482;51.046;4.498;2023-08-08T13:31:03;3.40;;;2.97;;
29538;SDS011;16482;51.046;4.498;2023-08-08T13:33:33;3.85;;;2.42;;
29538;SDS011;16482;51.046;4.498;2023-08-08T13:35:59;2.63;;;2.38;;
29538;SDS011;16482;51.046;4.498;2023-08-08T13:38:28;4.38;;;2.42;;
29538;SDS011;16482;51.046;4.498;2023-08-08T13:40:57;2.70;;;2.45;;
29538;SDS011;16482;51.046;4.498;2023-08-08T13:43:25;3.13;;;2.65;;
29538;SDS011;16482;51.046;4.498;2023-08-08T13:46:01;2.55;;;2.33;;
29538;SDS011;16482;51.046;4.498;2023-08-08T13:48:29;2.88;;;2.38;;
29538;SDS011;16482;51.046;4.498;2023-08-08T13:50:58;3.67;;;2.72;;
29538;SDS011;16482;51.046;4.498;2023-08-08T13:53:24;3.03;;;2.10;;
29538;SDS011;16482;51.046;4.498;2023-08-08T13:55:50;2.40;;;2.20;;
29538;SDS011;16482;51.046;4.498;2023-08-08T13:58:16;2.92;;;2.17;;
29538;SDS011;16482;51.046;4.498;2023-08-08T14:00:54;2.90;;;2.15;;
29538;SDS011;16482;51.046;4.498;2023-08-08T14:03:23;3.70;;;2.13;;
29538;SDS011;16482;51.046;4.498;2023-08-08T14:05:50;3.10;;;2.20;;
29538;SDS011;16482;51.046;4.498;2023-08-08T14:08:26;2.25;;;2.00;;
29538;SDS011;16482;51.046;4.498;2023-08-08T14:11:04;3.40;;;2.10;;
29538;SDS011;16482;51.046;4.498;2023-08-08T14:13:31;2.55;;;2.13;;
29538;SDS011;16482;51.046;4.498;2023-08-08T14:16:00;3.88;;;2.13;;
29538;SDS011;16482;51.046;4.498;2023-08-08T14:18:28;3.13;;;2.13;;
29538;SDS011;16482;51.046;4.498;2023-08-08T14:21:02;5.03;;;2.00;;
29538;SDS011;16482;51.046;4.498;2023-08-08T14:23:29;2.78;;;2.17;;
29538;SDS011;16482;51.046;4.498;2023-08-08T14:25:58;3.05;;;1.80;;
29538;SDS011;16482;51.046;4.498;2023-08-08T14:28:31;2.83;;;2.15;;
29538;SDS011;16482;51.046;4.498;2023-08-08T14:31:00;2.85;;;2.03;;
29538;SDS011;16482;51.046;4.498;2023-08-08T14:33:29;2.55;;;2.13;;
29538;SDS011;16482;51.046;4.498;2023-08-08T14:35:58;2.13;;;1.65;;
29538;SDS011;16482;51.046;4.498;2023-08-08T14:38:24;3.67;;;1.92;;
29538;SDS011;16482;51.046;4.498;2023-08-08T14:40:51;2.88;;;1.95;;
29538;SDS011;16482;51.046;4.498;2023-08-08T14:43:18;2.63;;;2.10;;
29538;SDS011;16482;51.046;4.498;2023-08-08T14:45:53;2.85;;;1.88;;
29538;SDS011;16482;51.046;4.498;2023-08-08T14:48:21;3.75;;;2.10;;
29538;SDS011;16482;51.046;4.498;2023-08-08T14:50:50;2.50;;;2.00;;
29538;SDS011;16482;51.046;4.498;2023-08-08T14:53:16;2.53;;;2.05;;
29538;SDS011;16482;51.046;4.498;2023-08-08T14:55:42;2.08;;;1.83;;
29538;SDS011;16482;51.046;4.498;2023-08-08T14:58:08;2.13;;;1.70;;
29538;SDS011;16482;51.046;4.498;2023-08-08T15:00:34;3.47;;;2.13;;
29538;SDS011;16482;51.046;4.498;2023-08-08T15:03:00;2.72;;;1.83;;
29538;SDS011;16482;51.046;4.498;2023-08-08T15:05:26;3.25;;;1.90;;
29538;SDS011;16482;51.046;4.498;2023-08-08T15:07:52;2.60;;;1.90;;
29538;SDS011;16482;51.046;4.498;2023-08-08T15:10:18;3.33;;;1.95;;
29538;SDS011;16482;51.046;4.498;2023-08-08T15:12:47;4.50;;;1.83;;